Eastland Hill, Pennsylvania
Current Conditions -  °F | °C
As of 5:01 AM on Saturday 29 Nov 2014 (Local Time) from KRYT Reporting Station
Light Snow Light Snow  
Wind Chill: 27°   Ceiling: 3600
Heat Index: 27°   Visibility: 2mi
Dew Point: 21°   Wind: 0mph
Humidity: 80%   Direction: NA
Pressure: 30.25"   Gusts: NA
Location:  39.7777°N, 77.5693°W
Report Text: KRYT 291001Z AUTO 00000KT 2SM -SN OVC036 M03/M06 A3025 RMK AO2 P0000 $
Loading
Personal Weather Stations






























Interactive Weather Map New forecast layout! Learn more

10-Day Weather Forecast

Advertisements
Track Severe Weather on mobile